CAP5078 PATK-PANC
Flight info
| Callsign | CAP5078 |
|---|---|
| Flight time | N/A |
| Altitude | 8000 |
| Route | PATK PANC DIRECT |
| Aircraft | PA44/L-VGD/C |
Departure
| Time | 2026-04-25 00:36 |
|---|---|
| Airport | Talkeetna Airport (PATK) |
Arrival
| Time | N/A |
|---|---|
| Airport | Ted Stevens Anchorage International Airport (PANC) |
| Time | Latitude | Longitude | Altitude | Speed | Heading |
|---|---|---|---|---|---|
| 2026-04-25 00:27 | 62.32120 | -150.09634 | 348 ft | 0 kts | 111° |
| 2026-04-25 00:32 | 62.32120 | -150.09630 | 348 ft | 1 kts | 113° |
| 2026-04-25 00:32 | 62.32105 | -150.09598 | 348 ft | 8 kts | 157° |
| 2026-04-25 00:32 | 62.32078 | -150.09505 | 348 ft | 1 kts | 77° |
| 2026-04-25 00:32 | 62.32109 | -150.09464 | 348 ft | 11 kts | 27° |
| 2026-04-25 00:33 | 62.32192 | -150.09374 | 351 ft | 16 kts | 28° |
| 2026-04-25 00:33 | 62.32288 | -150.09268 | 352 ft | 18 kts | 27° |
| 2026-04-25 00:33 | 62.32392 | -150.09152 | 352 ft | 19 kts | 26° |
| 2026-04-25 00:33 | 62.32498 | -150.09039 | 354 ft | 16 kts | 26° |
| 2026-04-25 00:34 | 62.32568 | -150.08955 | 355 ft | 10 kts | 48° |
| 2026-04-25 00:34 | 62.32578 | -150.08885 | 355 ft | 0 kts | 116° |
| 2026-04-25 00:34 | 62.32568 | -150.08843 | 355 ft | 8 kts | 118° |
| 2026-04-25 00:35 | 62.32545 | -150.08821 | 355 ft | 0 kts | 201° |
| 2026-04-25 00:35 | 62.32442 | -150.08928 | 355 ft | 54 kts | 208° |
| 2026-04-25 00:35 | 62.32007 | -150.09416 | 423 ft | 93 kts | 208° |
| 2026-04-25 00:35 | 62.31647 | -150.09834 | 582 ft | 106 kts | 208° |
| 2026-04-25 00:36 | 62.31042 | -150.10475 | 1005 ft | 105 kts | 205° |
| 2026-04-25 00:36 | 62.30695 | -150.10838 | 1397 ft | 91 kts | 206° |
| 2026-04-25 00:36 | 62.29858 | -150.11736 | 2017 ft | 93 kts | 206° |
| 2026-04-25 00:36 | 62.29345 | -150.12293 | 2369 ft | 95 kts | 205° |
| 2026-04-25 00:37 | 62.28813 | -150.12874 | 2720 ft | 97 kts | 205° |
| 2026-04-25 00:37 | 62.28282 | -150.13458 | 3074 ft | 97 kts | 204° |
| 2026-04-25 00:37 | 62.27740 | -150.14058 | 3418 ft | 98 kts | 204° |
| 2026-04-25 00:37 | 62.27190 | -150.14671 | 3775 ft | 98 kts | 204° |
| 2026-04-25 00:38 | 62.26658 | -150.15269 | 4119 ft | 98 kts | 204° |
| 2026-04-25 00:38 | 62.26119 | -150.15881 | 4467 ft | 97 kts | 204° |
| 2026-04-25 00:38 | 62.25589 | -150.16489 | 4805 ft | 96 kts | 203° |
| 2026-04-25 00:38 | 62.25067 | -150.17091 | 5138 ft | 96 kts | 203° |
| 2026-04-25 00:39 | 62.24542 | -150.17703 | 5466 ft | 95 kts | 203° |
| 2026-04-25 00:39 | 62.24018 | -150.18320 | 5803 ft | 94 kts | 202° |
| 2026-04-25 00:39 | 62.23485 | -150.18953 | 6129 ft | 94 kts | 202° |
| 2026-04-25 00:39 | 62.22950 | -150.19594 | 6461 ft | 93 kts | 201° |
| 2026-04-25 00:40 | 62.22415 | -150.20241 | 6779 ft | 94 kts | 201° |
| 2026-04-25 00:40 | 62.21889 | -150.20883 | 7103 ft | 93 kts | 201° |
| 2026-04-25 00:40 | 62.21349 | -150.21550 | 7432 ft | 92 kts | 202° |
| 2026-04-25 00:40 | 62.20821 | -150.22208 | 7747 ft | 92 kts | 202° |
| 2026-04-25 00:41 | 62.20293 | -150.22864 | 7960 ft | 101 kts | 201° |
| 2026-04-25 00:41 | 62.19674 | -150.23593 | 7995 ft | 121 kts | 202° |
| 2026-04-25 00:41 | 62.18959 | -150.24408 | 8017 ft | 137 kts | 202° |
| 2026-04-25 00:41 | 62.18165 | -150.25301 | 8033 ft | 146 kts | 202° |
| 2026-04-25 00:42 | 62.17341 | -150.26227 | 7995 ft | 148 kts | 203° |
| 2026-04-25 00:42 | 62.16519 | -150.27158 | 7971 ft | 149 kts | 203° |
| 2026-04-25 00:42 | 62.15691 | -150.28101 | 7988 ft | 147 kts | 203° |
| 2026-04-25 00:42 | 62.14878 | -150.29033 | 7959 ft | 148 kts | 203° |
| 2026-04-25 00:43 | 62.14051 | -150.29987 | 7970 ft | 147 kts | 203° |
| 2026-04-25 00:43 | 62.13232 | -150.30937 | 7956 ft | 148 kts | 203° |
| 2026-04-25 00:43 | 62.12418 | -150.31888 | 7955 ft | 148 kts | 203° |
| 2026-04-25 00:43 | 62.11595 | -150.32854 | 7948 ft | 148 kts | 203° |
| 2026-04-25 00:44 | 62.10775 | -150.33823 | 7953 ft | 147 kts | 203° |
| 2026-04-25 00:44 | 62.09955 | -150.34798 | 7951 ft | 148 kts | 204° |
| 2026-04-25 00:44 | 62.09130 | -150.35783 | 7950 ft | 148 kts | 204° |
| 2026-04-25 00:44 | 62.08309 | -150.36772 | 7955 ft | 148 kts | 204° |
| 2026-04-25 00:45 | 62.07469 | -150.37788 | 7953 ft | 148 kts | 203° |
| 2026-04-25 00:45 | 62.06642 | -150.38792 | 7948 ft | 148 kts | 204° |
| 2026-04-25 00:45 | 62.05817 | -150.39801 | 7949 ft | 148 kts | 204° |
| 2026-04-25 00:45 | 62.05000 | -150.40808 | 7954 ft | 148 kts | 204° |
| 2026-04-25 00:46 | 62.04168 | -150.41838 | 7953 ft | 148 kts | 204° |
| 2026-04-25 00:46 | 62.03323 | -150.42891 | 7955 ft | 148 kts | 204° |
| 2026-04-25 00:46 | 62.01574 | -150.45090 | 7954 ft | 148 kts | 204° |
| 2026-04-25 00:47 | 62.00698 | -150.46201 | 7947 ft | 147 kts | 205° |
| 2026-04-25 00:47 | 61.99824 | -150.47319 | 7957 ft | 147 kts | 205° |
| 2026-04-25 00:47 | 61.98939 | -150.48459 | 7957 ft | 148 kts | 205° |
| 2026-04-25 00:47 | 61.98069 | -150.49583 | 7961 ft | 147 kts | 205° |
| 2026-04-25 00:48 | 61.97196 | -150.50720 | 7960 ft | 147 kts | 205° |
| 2026-04-25 00:48 | 61.96328 | -150.51857 | 7958 ft | 147 kts | 206° |
| 2026-04-25 00:48 | 61.95464 | -150.53001 | 7945 ft | 147 kts | 205° |
| 2026-04-25 00:48 | 61.94617 | -150.54128 | 7951 ft | 146 kts | 206° |
| 2026-04-25 00:49 | 61.93800 | -150.55223 | 7942 ft | 145 kts | 206° |
| 2026-04-25 00:49 | 61.92995 | -150.56313 | 7944 ft | 144 kts | 205° |
| 2026-04-25 00:49 | 61.92183 | -150.57420 | 7947 ft | 143 kts | 206° |
| 2026-04-25 00:49 | 61.91376 | -150.58528 | 7953 ft | 143 kts | 206° |
| 2026-04-25 00:50 | 61.90547 | -150.59666 | 7958 ft | 143 kts | 205° |
| 2026-04-25 00:50 | 61.89734 | -150.60762 | 7957 ft | 143 kts | 205° |
| 2026-04-25 00:50 | 61.88909 | -150.61861 | 7964 ft | 143 kts | 205° |
| 2026-04-25 00:50 | 61.88104 | -150.62918 | 7956 ft | 143 kts | 205° |
| 2026-04-25 00:51 | 61.87271 | -150.64000 | 7954 ft | 143 kts | 205° |
| 2026-04-25 00:51 | 61.86432 | -150.65076 | 7960 ft | 143 kts | 204° |
| 2026-04-25 00:51 | 61.85621 | -150.66124 | 7956 ft | 143 kts | 204° |
| 2026-04-25 00:51 | 61.84811 | -150.67177 | 7962 ft | 143 kts | 204° |
| 2026-04-25 00:52 | 61.84080 | -150.68401 | 7950 ft | 148 kts | 218° |
| 2026-04-25 00:52 | 61.83427 | -150.69899 | 7969 ft | 147 kts | 218° |
| 2026-04-25 00:52 | 61.82758 | -150.71368 | 7954 ft | 147 kts | 217° |
| 2026-04-25 00:52 | 61.82079 | -150.72797 | 7962 ft | 147 kts | 216° |
| 2026-04-25 00:53 | 61.81412 | -150.74149 | 7960 ft | 147 kts | 216° |
| 2026-04-25 00:53 | 61.80732 | -150.75502 | 7954 ft | 146 kts | 215° |
| 2026-04-25 00:53 | 61.80061 | -150.76819 | 7957 ft | 146 kts | 214° |
| 2026-04-25 00:53 | 61.79376 | -150.78145 | 7962 ft | 145 kts | 214° |
| 2026-04-25 00:54 | 61.78694 | -150.79452 | 7960 ft | 146 kts | 214° |
| 2026-04-25 00:54 | 61.78009 | -150.80765 | 7960 ft | 146 kts | 214° |
| 2026-04-25 00:54 | 61.77327 | -150.82062 | 7958 ft | 146 kts | 214° |
| 2026-04-25 00:54 | 61.76649 | -150.83345 | 7956 ft | 146 kts | 214° |
| 2026-04-25 00:55 | 61.75964 | -150.84641 | 7958 ft | 145 kts | 214° |
| 2026-04-25 00:55 | 61.75278 | -150.85934 | 7967 ft | 145 kts | 214° |
| 2026-04-25 00:55 | 61.74591 | -150.87228 | 7962 ft | 146 kts | 214° |
| 2026-04-25 00:55 | 61.73908 | -150.88516 | 7964 ft | 145 kts | 214° |
| 2026-04-25 00:56 | 61.73229 | -150.89795 | 7963 ft | 146 kts | 214° |
| 2026-04-25 00:56 | 61.72538 | -150.91089 | 7956 ft | 146 kts | 214° |
| 2026-04-25 00:56 | 61.71829 | -150.92419 | 7955 ft | 146 kts | 214° |
| 2026-04-25 00:56 | 61.71106 | -150.93779 | 7947 ft | 146 kts | 214° |
| 2026-04-25 00:57 | 61.70376 | -150.95148 | 7948 ft | 146 kts | 214° |
| 2026-04-25 00:57 | 61.69634 | -150.96536 | 7944 ft | 146 kts | 214° |
| 2026-04-25 00:57 | 61.68876 | -150.97952 | 7943 ft | 146 kts | 214° |
| 2026-04-25 00:57 | 61.68116 | -150.99376 | 7942 ft | 146 kts | 214° |
| 2026-04-25 00:58 | 61.67361 | -151.00790 | 7938 ft | 146 kts | 214° |
| 2026-04-25 00:58 | 61.66602 | -151.02202 | 7931 ft | 146 kts | 214° |
| 2026-04-25 00:58 | 61.66124 | -151.03095 | 7924 ft | 146 kts | 214° |
| 2026-04-25 00:59 | 61.66044 | -151.03242 | 7924 ft | 146 kts | 214° |
| 2026-04-25 00:59 | 61.65286 | -151.04660 | 7917 ft | 146 kts | 214° |
| 2026-04-25 00:59 | 61.64531 | -151.06068 | 7913 ft | 146 kts | 214° |
| 2026-04-25 00:59 | 61.63773 | -151.07483 | 7912 ft | 146 kts | 215° |
| 2026-04-25 01:00 | 61.63153 | -151.08644 | 7913 ft | 146 kts | 214° |
| 2026-04-25 01:00 | 61.62944 | -151.09033 | 7908 ft | 146 kts | 214° |
| 2026-04-25 01:00 | 61.62833 | -151.09241 | 7907 ft | 146 kts | 214° |
| 2026-04-25 01:01 | 61.62352 | -151.10132 | 7906 ft | 145 kts | 214° |